Time;durP1;ratioP1;P1;durP2;ratioP2;P2;SDS_P1;SDS_P2;PMS_P1;PMS_P2;Temp;Humidity;BMP_temperature;BMP_pressure;BME280_temperature;BME280_humidity;BME280_pressure;Samples;Min_cycle;Max_cycle;Signal;HPM_P1;HPM_P2
2023/01/25 00:01:57;;;;;;;23.70;9.63;;;;;;;;;;5017461;28;20026;-79
2023/01/25 00:04:23;;;;;;;23.65;10.68;;;;;;;;;;4999528;28;20368;-81
2023/01/25 00:06:49;;;;;;;24.67;10.25;;;;;;;;;;5020564;28;20490;-81
2023/01/25 00:09:15;;;;;;;25.45;11.75;;;;;;;;;;5022144;28;20064;-81
2023/01/25 00:11:40;;;;;;;24.23;9.48;;;;;;;;;;5005155;28;20034;-81
2023/01/25 00:14:06;;;;;;;24.70;11.35;;;;;;;;;;5022293;28;20029;-81
2023/01/25 00:16:31;;;;;;;22.50;10.38;;;;;;;;;;5023228;28;20036;-81
2023/01/25 00:18:57;;;;;;;26.58;10.77;;;;;;;;;;5022612;28;20022;-81
2023/01/25 00:21:24;;;;;;;24.20;9.48;;;;;;;;;;5022643;28;20034;-80
2023/01/25 00:23:50;;;;;;;21.77;9.40;;;;;;;;;;5004670;28;20387;-81
2023/01/25 00:26:16;;;;;;;20.50;8.82;;;;;;;;;;5005470;28;20021;-81
2023/01/25 00:28:41;;;;;;;23.88;9.75;;;;;;;;;;5022430;28;20407;-81
2023/01/25 00:31:10;;;;;;;19.73;9.40;;;;;;;;;;5022137;28;20029;-80
2023/01/25 00:33:55;;;;;;;21.25;9.25;;;;;;;;;;5023975;28;20076;-81
2023/01/25 00:36:39;;;;;;;20.63;8.95;;;;;;;;;;5025027;28;20018;-81
2023/01/25 00:39:08;;;;;;;23.67;9.77;;;;;;;;;;5024692;28;20026;-82
2023/01/25 00:41:33;;;;;;;18.38;8.50;;;;;;;;;;5022830;28;20034;-81
2023/01/25 00:43:58;;;;;;;18.48;8.43;;;;;;;;;;5020398;28;20113;-81
2023/01/25 00:46:24;;;;;;;20.35;8.48;;;;;;;;;;5020505;28;20058;-82
2023/01/25 00:48:53;;;;;;;18.30;8.02;;;;;;;;;;5002651;28;20018;-83
2023/01/25 00:51:18;;;;;;;19.52;8.10;;;;;;;;;;5021022;28;20025;-81
2023/01/25 00:53:43;;;;;;;19.10;8.13;;;;;;;;;;5020617;28;20088;-81
2023/01/25 00:56:09;;;;;;;19.92;7.82;;;;;;;;;;5020272;28;20256;-81
2023/01/25 00:58:34;;;;;;;16.83;7.93;;;;;;;;;;5003187;28;20372;-81
2023/01/25 01:00:59;;;;;;;20.70;8.47;;;;;;;;;;5021336;28;20383;-83
2023/01/25 01:03:24;;;;;;;19.52;7.78;;;;;;;;;;5006780;28;20260;-81
2023/01/25 01:06:11;;;;;;;17.42;7.07;;;;;;;;;;5007303;28;20029;-81
2023/01/25 01:08:40;;;;;;;14.57;6.38;;;;;;;;;;5006430;28;20049;-80
2023/01/25 01:11:08;;;;;;;11.45;5.45;;;;;;;;;;5025030;28;20025;-80
2023/01/25 01:13:34;;;;;;;16.35;7.60;;;;;;;;;;5025213;28;20033;-81
2023/01/25 01:16:04;;;;;;;19.50;7.75;;;;;;;;;;5025401;28;20022;-81
2023/01/25 01:18:34;;;;;;;15.57;6.45;;;;;;;;;;5007048;28;20109;-82
2023/01/25 01:21:00;;;;;;;11.13;5.78;;;;;;;;;;5006439;28;20036;-81
2023/01/25 01:23:27;;;;;;;17.25;7.10;;;;;;;;;;5023254;28;20061;-81
2023/01/25 01:25:52;;;;;;;20.13;7.38;;;;;;;;;;5023238;28;20549;-80
2023/01/25 01:28:18;;;;;;;13.27;5.93;;;;;;;;;;5004870;28;20042;-80
2023/01/25 01:30:43;;;;;;;20.92;7.63;;;;;;;;;;5023290;28;20032;-82
2023/01/25 01:33:11;;;;;;;17.27;7.15;;;;;;;;;;5022957;28;20372;-80
2023/01/25 01:35:36;;;;;;;19.50;7.18;;;;;;;;;;5022942;28;20029;-81
2023/01/25 01:38:01;;;;;;;14.40;6.95;;;;;;;;;;5023315;28;20027;-82
2023/01/25 01:40:27;;;;;;;15.70;7.50;;;;;;;;;;5022629;28;20022;-83
2023/01/25 01:43:01;;;;;;;15.85;7.40;;;;;;;;;;5019828;28;20392;-80
2023/01/25 01:45:45;;;;;;;;;;;;;;;;;;5019211;28;20030;-80
2023/01/25 01:48:20;;;;;;;14.40;6.03;;;;;;;;;;5019073;28;19914;-81
2023/01/25 01:50:49;;;;;;;17.52;7.78;;;;;;;;;;5018844;28;20018;-80
2023/01/25 01:53:15;;;;;;;13.57;5.97;;;;;;;;;;5001787;28;20530;-79
2023/01/25 01:55:40;;;;;;;17.73;7.32;;;;;;;;;;5002441;28;20034;-81
2023/01/25 01:58:06;;;;;;;15.43;6.95;;;;;;;;;;5018495;28;20029;-81
2023/01/25 02:00:35;;;;;;;14.88;7.00;;;;;;;;;;5018646;28;20025;-81
2023/01/25 02:03:01;;;;;;;14.23;6.75;;;;;;;;;;5001686;28;20045;-81
2023/01/25 02:05:42;;;;;;;13.85;6.13;;;;;;;;;;5019277;28;20084;-82
2023/01/25 02:08:12;;;;;;;16.58;7.43;;;;;;;;;;5002336;28;20026;-81
2023/01/25 02:10:38;;;;;;;15.02;6.72;;;;;;;;;;5019322;28;20057;-80
2023/01/25 02:13:03;;;;;;;13.93;5.68;;;;;;;;;;5002916;28;20457;-80
2023/01/25 02:15:36;;;;;;;14.23;6.32;;;;;;;;;;5021653;28;20060;-80
2023/01/25 02:18:02;;;;;;;15.27;7.30;;;;;;;;;;5002960;28;20018;-81
2023/01/25 02:20:42;;;;;;;20.58;7.40;;;;;;;;;;5021193;28;20360;-80
2023/01/25 02:23:46;;;;;;;16.60;7.57;;;;;;;;;;5022508;28;20443;-80
2023/01/25 02:26:13;;;;;;;19.65;7.57;;;;;;;;;;5020004;28;20022;-82
2023/01/25 02:28:45;;;;;;;12.15;6.00;;;;;;;;;;5019502;28;20034;-81
2023/01/25 02:31:10;;;;;;;16.23;6.85;;;;;;;;;;5020354;28;20034;-80
2023/01/25 02:33:36;;;;;;;17.45;7.07;;;;;;;;;;5018197;28;20387;-79
2023/01/25 02:36:04;;;;;;;15.70;6.78;;;;;;;;;;5018590;28;20025;-82
2023/01/25 02:38:33;;;;;;;15.63;7.63;;;;;;;;;;5018658;28;20395;-81
2023/01/25 02:41:06;;;;;;;14.02;7.07;;;;;;;;;;5001846;28;20068;-81
2023/01/25 02:43:33;;;;;;;15.45;7.15;;;;;;;;;;5018408;28;20069;-81
2023/01/25 02:46:09;;;;;;;15.38;7.45;;;;;;;;;;5018597;28;20033;-80
2023/01/25 02:48:34;;;;;;;15.23;7.22;;;;;;;;;;5018590;28;20049;-81
2023/01/25 02:51:00;;;;;;;15.82;7.28;;;;;;;;;;5001271;28;20026;-81
2023/01/25 02:53:26;;;;;;;17.67;8.15;;;;;;;;;;5020013;28;20036;-80
2023/01/25 02:55:51;;;;;;;19.48;8.10;;;;;;;;;;5020130;28;20049;-81
2023/01/25 02:58:17;;;;;;;18.42;7.38;;;;;;;;;;5019318;28;20106;-80
2023/01/25 03:00:42;;;;;;;17.10;8.27;;;;;;;;;;5000777;28;20033;-79
2023/01/25 03:03:07;;;;;;;18.42;7.45;;;;;;;;;;5000645;28;20041;-81
2023/01/25 03:05:32;;;;;;;13.68;6.93;;;;;;;;;;5017411;28;20040;-81
2023/01/25 03:07:57;;;;;;;13.82;6.80;;;;;;;;;;5017216;28;20026;-82
2023/01/25 03:10:23;;;;;;;16.83;7.32;;;;;;;;;;5016445;28;20032;-81
2023/01/25 03:12:48;;;;;;;14.63;6.87;;;;;;;;;;5017469;28;20030;-83
2023/01/25 03:15:13;;;;;;;17.33;7.65;;;;;;;;;;5017545;28;20261;-82
2023/01/25 03:17:38;;;;;;;15.68;7.93;;;;;;;;;;5017379;28;20018;-82
2023/01/25 03:20:05;;;;;;;16.85;7.30;;;;;;;;;;5017006;28;20105;-82
2023/01/25 03:22:30;;;;;;;19.17;8.10;;;;;;;;;;5024176;28;20026;-81
2023/01/25 03:24:56;;;;;;;15.50;7.60;;;;;;;;;;5032509;28;20395;-82
2023/01/25 03:27:21;;;;;;;16.27;8.15;;;;;;;;;;5032364;28;20058;-81
2023/01/25 03:29:49;;;;;;;13.80;6.63;;;;;;;;;;5014886;28;20021;-81
2023/01/25 03:32:14;;;;;;;17.30;7.88;;;;;;;;;;5031824;28;20018;-81
2023/01/25 03:34:39;;;;;;;16.55;7.25;;;;;;;;;;5038942;28;20021;-82
2023/01/25 03:37:05;;;;;;;14.98;7.70;;;;;;;;;;5038706;28;20030;-82
2023/01/25 03:39:30;;;;;;;18.17;7.05;;;;;;;;;;5011092;28;20033;-81
2023/01/25 03:41:55;;;;;;;17.52;6.95;;;;;;;;;;5008914;28;20098;-81
2023/01/25 03:44:20;;;;;;;15.65;7.40;;;;;;;;;;5028607;28;20037;-80
2023/01/25 03:46:45;;;;;;;14.95;7.22;;;;;;;;;;5032011;28;20451;-81
2023/01/25 03:49:11;;;;;;;14.02;6.85;;;;;;;;;;5027109;28;20099;-82
2023/01/25 03:51:36;;;;;;;14.93;7.13;;;;;;;;;;5027203;28;20022;-81
2023/01/25 03:54:02;;;;;;;17.55;7.45;;;;;;;;;;5007058;28;20368;-80
2023/01/25 03:56:27;;;;;;;16.40;6.95;;;;;;;;;;5016549;28;20047;-80
2023/01/25 03:58:52;;;;;;;14.13;6.90;;;;;;;;;;4997036;28;20028;-80
2023/01/25 04:01:18;;;;;;;11.45;5.72;;;;;;;;;;5014965;28;20018;-80
2023/01/25 04:03:43;;;;;;;13.27;5.57;;;;;;;;;;5015043;28;20045;-81
2023/01/25 04:06:08;;;;;;;14.85;5.88;;;;;;;;;;4996623;28;20022;-81
2023/01/25 04:08:34;;;;;;;13.13;6.03;;;;;;;;;;5014315;28;20021;-81
2023/01/25 04:11:02;;;;;;;12.73;5.65;;;;;;;;;;5014754;28;20037;-80
2023/01/25 04:13:27;;;;;;;13.70;6.03;;;;;;;;;;5014740;28;20037;-80
2023/01/25 04:15:53;;;;;;;14.15;6.75;;;;;;;;;;4997044;28;20022;-80
2023/01/25 04:18:18;;;;;;;17.95;6.20;;;;;;;;;;4996980;28;20120;-79
2023/01/25 04:20:44;;;;;;;11.60;6.25;;;;;;;;;;5015242;28;20250;-80
2023/01/25 04:23:10;;;;;;;16.90;7.03;;;;;;;;;;5015034;28;20028;-80
2023/01/25 04:25:35;;;;;;;12.70;5.90;;;;;;;;;;5014527;28;20025;-78
2023/01/25 04:28:01;;;;;;;11.88;6.30;;;;;;;;;;5015207;28;20042;-80
2023/01/25 04:30:26;;;;;;;12.23;5.72;;;;;;;;;;4997756;28;20021;-79
2023/01/25 04:32:51;;;;;;;16.40;6.97;;;;;;;;;;5015104;28;20028;-79
2023/01/25 04:35:17;;;;;;;14.32;7.25;;;;;;;;;;4997082;28;20034;-81
2023/01/25 04:37:42;;;;;;;12.13;6.05;;;;;;;;;;5016078;28;20033;-80
2023/01/25 04:40:08;;;;;;;16.75;7.55;;;;;;;;;;5016312;28;20037;-79
2023/01/25 04:42:33;;;;;;;16.17;7.20;;;;;;;;;;4998052;28;20018;-79
2023/01/25 04:44:59;;;;;;;15.82;6.85;;;;;;;;;;5016522;28;20033;-80
2023/01/25 04:47:24;;;;;;;12.77;6.63;;;;;;;;;;4999214;28;20488;-79
2023/01/25 04:49:49;;;;;;;13.35;6.57;;;;;;;;;;4998020;28;20017;-80
2023/01/25 04:52:14;;;;;;;14.18;7.45;;;;;;;;;;5016735;28;20224;-79
2023/01/25 04:54:40;;;;;;;15.93;7.35;;;;;;;;;;5019134;28;20026;-79
2023/01/25 04:57:05;;;;;;;14.18;7.13;;;;;;;;;;5020243;28;20364;-78
2023/01/25 04:59:30;;;;;;;14.88;6.93;;;;;;;;;;5020003;28;20075;-78
2023/01/25 05:01:55;;;;;;;12.07;6.50;;;;;;;;;;5020945;28;20034;-79
2023/01/25 05:04:21;;;;;;;11.60;6.05;;;;;;;;;;5020417;28;20033;-80
2023/01/25 05:06:46;;;;;;;12.68;5.97;;;;;;;;;;5020584;28;20117;-80
2023/01/25 05:09:11;;;;;;;12.88;6.30;;;;;;;;;;5020086;28;20061;-80
2023/01/25 05:11:36;;;;;;;12.07;5.80;;;;;;;;;;5003005;28;20022;-80
2023/01/25 05:14:02;;;;;;;14.30;6.43;;;;;;;;;;5003253;28;20250;-79
2023/01/25 05:16:27;;;;;;;14.13;5.47;;;;;;;;;;5003042;28;20072;-81
2023/01/25 05:18:55;;;;;;;13.57;5.40;;;;;;;;;;5020558;28;20033;-80
2023/01/25 05:24:05;;;;;;;;;;;;;;;;;;5019561;28;20057;-81
2023/01/25 05:29:14;;;;;;;11.05;4.88;;;;;;;;;;5022234;28;20036;-82
2023/01/25 05:31:39;;;;;;;14.32;5.90;;;;;;;;;;5022168;28;20545;-81
2023/01/25 05:34:04;;;;;;;14.32;6.90;;;;;;;;;;5003013;28;20053;-82
2023/01/25 05:36:29;;;;;;;14.90;6.30;;;;;;;;;;5020604;28;20105;-80
2023/01/25 05:38:55;;;;;;;13.32;6.30;;;;;;;;;;5021836;28;20557;-82
2023/01/25 05:41:20;;;;;;;13.85;6.25;;;;;;;;;;5021567;28;20475;-82
2023/01/25 05:43:48;;;;;;;12.80;6.20;;;;;;;;;;5022154;28;20052;-81
2023/01/25 05:46:14;;;;;;;15.93;6.25;;;;;;;;;;5003262;28;20029;-80
2023/01/25 05:48:39;;;;;;;10.65;5.78;;;;;;;;;;5020969;28;21341;-81
2023/01/25 05:51:04;;;;;;;12.38;6.05;;;;;;;;;;5022546;28;20489;-80
2023/01/25 05:53:29;;;;;;;14.13;5.80;;;;;;;;;;5004965;28;20029;-81
2023/01/25 05:55:55;;;;;;;13.30;5.93;;;;;;;;;;5022514;28;20025;-81
2023/01/25 05:58:20;;;;;;;12.80;5.88;;;;;;;;;;5022953;28;20037;-81
2023/01/25 06:00:45;;;;;;;17.00;6.95;;;;;;;;;;5023118;28;20026;-81
2023/01/25 06:03:10;;;;;;;15.82;6.68;;;;;;;;;;5022227;28;20029;-80
2023/01/25 06:05:36;;;;;;;16.10;7.25;;;;;;;;;;5023024;28;20029;-81
2023/01/25 06:08:01;;;;;;;15.77;6.28;;;;;;;;;;5022909;28;20040;-80
2023/01/25 06:10:26;;;;;;;12.93;6.20;;;;;;;;;;5004619;28;20053;-81
2023/01/25 06:12:57;;;;;;;14.20;6.97;;;;;;;;;;5005207;28;20495;-81
2023/01/25 06:15:23;;;;;;;14.25;7.07;;;;;;;;;;5022971;28;20117;-81
2023/01/25 06:17:48;;;;;;;15.45;6.82;;;;;;;;;;5022822;28;20412;-80
2023/01/25 06:20:13;;;;;;;15.93;7.10;;;;;;;;;;5004371;28;20029;-81
2023/01/25 06:22:39;;;;;;;16.05;7.32;;;;;;;;;;5021017;28;20029;-81
2023/01/25 06:25:04;;;;;;;15.15;7.05;;;;;;;;;;5001234;28;20089;-82
2023/01/25 06:27:29;;;;;;;14.00;6.82;;;;;;;;;;5018733;28;20030;-81
2023/01/25 06:29:55;;;;;;;14.82;6.60;;;;;;;;;;5019631;28;20025;-82
2023/01/25 06:32:20;;;;;;;16.00;7.22;;;;;;;;;;5001696;28;20018;-82
2023/01/25 06:34:45;;;;;;;14.10;6.40;;;;;;;;;;5019305;28;20030;-82
2023/01/25 06:37:11;;;;;;;16.80;7.25;;;;;;;;;;5001743;28;20061;-81
2023/01/25 06:39:36;;;;;;;12.65;6.15;;;;;;;;;;5019173;28;20076;-80
2023/01/25 06:42:01;;;;;;;13.20;5.57;;;;;;;;;;5001328;28;20029;-80
2023/01/25 06:44:26;;;;;;;12.40;6.15;;;;;;;;;;5019430;28;20026;-81
2023/01/25 06:46:51;;;;;;;14.18;5.95;;;;;;;;;;5018966;28;20057;-81
2023/01/25 06:49:17;;;;;;;13.25;5.97;;;;;;;;;;5019083;28;20495;-82
2023/01/25 06:51:42;;;;;;;12.20;5.75;;;;;;;;;;5019195;28;20057;-81
2023/01/25 06:54:07;;;;;;;13.77;6.38;;;;;;;;;;5001293;28;20026;-81
2023/01/25 06:56:32;;;;;;;13.30;5.70;;;;;;;;;;5019357;28;20068;-82
2023/01/25 06:58:57;;;;;;;16.52;7.38;;;;;;;;;;5019019;28;20029;-82
2023/01/25 07:01:29;;;;;;;14.20;5.97;;;;;;;;;;5019159;28;20115;-81
2023/01/25 07:03:56;;;;;;;12.73;6.28;;;;;;;;;;5018332;28;20026;-81
2023/01/25 07:06:23;;;;;;;12.40;5.97;;;;;;;;;;5017829;28;20087;-80
2023/01/25 07:08:49;;;;;;;13.15;6.50;;;;;;;;;;5020991;28;20026;-80
2023/01/25 07:11:17;;;;;;;13.27;6.75;;;;;;;;;;5003715;28;20068;-81
2023/01/25 07:13:44;;;;;;;15.52;6.80;;;;;;;;;;5021034;28;20022;-82
2023/01/25 07:16:12;;;;;;;11.63;5.72;;;;;;;;;;5020966;28;20057;-80
2023/01/25 07:18:37;;;;;;;11.70;5.93;;;;;;;;;;5020536;28;20033;-81
2023/01/25 07:21:07;;;;;;;12.45;5.90;;;;;;;;;;5002983;28;20394;-80
2023/01/25 07:23:33;;;;;;;10.95;5.75;;;;;;;;;;5022544;28;20057;-81
2023/01/25 07:25:59;;;;;;;11.73;5.43;;;;;;;;;;5022765;28;20029;-80
2023/01/25 07:28:24;;;;;;;10.85;5.53;;;;;;;;;;5004497;28;20412;-81
2023/01/25 07:30:50;;;;;;;11.98;5.57;;;;;;;;;;5020353;28;20026;-81
2023/01/25 07:33:16;;;;;;;13.50;6.03;;;;;;;;;;5001915;28;20026;-80
2023/01/25 07:35:41;;;;;;;14.65;5.93;;;;;;;;;;5003040;28;20022;-81
2023/01/25 07:38:06;;;;;;;13.45;5.80;;;;;;;;;;5020934;28;20395;-81
2023/01/25 07:40:32;;;;;;;13.73;6.07;;;;;;;;;;5018085;28;20025;-80
2023/01/25 07:42:57;;;;;;;18.33;6.30;;;;;;;;;;5017796;28;20034;-80
2023/01/25 07:45:29;;;;;;;12.57;6.07;;;;;;;;;;5017910;28;20021;-80
2023/01/25 07:47:54;;;;;;;14.07;7.05;;;;;;;;;;5018609;28;20032;-80
2023/01/25 07:50:19;;;;;;;13.43;6.95;;;;;;;;;;5001995;28;20097;-80
2023/01/25 07:52:45;;;;;;;12.88;5.50;;;;;;;;;;5020017;28;20032;-80
2023/01/25 07:55:10;;;;;;;12.60;5.88;;;;;;;;;;4999937;28;20022;-81
2023/01/25 07:57:35;;;;;;;11.70;5.47;;;;;;;;;;5019264;28;20533;-81
2023/01/25 08:00:00;;;;;;;13.27;6.07;;;;;;;;;;5019093;28;20744;-80
2023/01/25 08:02:26;;;;;;;14.52;6.18;;;;;;;;;;5019335;28;20372;-81
2023/01/25 08:04:51;;;;;;;17.20;6.40;;;;;;;;;;5017202;28;20393;-81
2023/01/25 08:07:16;;;;;;;21.00;6.93;;;;;;;;;;4999859;28;20093;-80
2023/01/25 08:09:41;;;;;;;15.30;6.20;;;;;;;;;;5000722;28;20038;-81
2023/01/25 08:12:07;;;;;;;13.65;6.70;;;;;;;;;;5018248;28;20112;-81
2023/01/25 08:14:32;;;;;;;13.88;6.75;;;;;;;;;;5000852;28;20060;-81
2023/01/25 08:16:58;;;;;;;14.75;7.57;;;;;;;;;;5017421;28;20025;-81
2023/01/25 08:19:24;;;;;;;10.63;6.32;;;;;;;;;;5017862;28;20386;-81
2023/01/25 08:21:50;;;;;;;10.98;6.65;;;;;;;;;;5000279;28;20434;-80
2023/01/25 08:24:15;;;;;;;16.73;6.82;;;;;;;;;;5020007;28;20084;-80
2023/01/25 08:26:42;;;;;;;11.23;5.93;;;;;;;;;;5001112;28;20034;-82
2023/01/25 08:29:09;;;;;;;14.27;6.50;;;;;;;;;;5022102;28;20076;-82
2023/01/25 08:31:35;;;;;;;17.23;7.55;;;;;;;;;;5004358;28;20025;-82
2023/01/25 08:34:00;;;;;;;13.68;6.93;;;;;;;;;;5021974;28;20029;-80
2023/01/25 08:36:28;;;;;;;12.98;6.75;;;;;;;;;;5021763;28;20149;-80
2023/01/25 08:38:57;;;;;;;14.35;7.07;;;;;;;;;;5002431;28;20042;-81
2023/01/25 08:41:23;;;;;;;16.27;7.68;;;;;;;;;;5002271;28;20029;-81
2023/01/25 08:43:52;;;;;;;16.25;6.85;;;;;;;;;;5019524;28;20033;-82
2023/01/25 08:46:18;;;;;;;15.32;6.90;;;;;;;;;;5002116;28;20025;-81
2023/01/25 08:48:43;;;;;;;14.93;7.20;;;;;;;;;;5020175;28;20026;-83
2023/01/25 08:51:11;;;;;;;13.43;6.13;;;;;;;;;;5020462;28;20026;-82
2023/01/25 08:53:39;;;;;;;12.40;6.25;;;;;;;;;;5020019;28;20018;-82
2023/01/25 08:56:06;;;;;;;11.50;6.25;;;;;;;;;;5002610;28;20018;-80
2023/01/25 08:58:32;;;;;;;12.45;6.28;;;;;;;;;;5002828;28;20430;-79
2023/01/25 09:01:03;;;;;;;11.40;6.28;;;;;;;;;;5020255;28;20022;-81
2023/01/25 09:03:28;;;;;;;11.43;6.07;;;;;;;;;;5002193;28;20121;-80
2023/01/25 09:05:53;;;;;;;10.50;6.15;;;;;;;;;;5001572;28;20041;-82
2023/01/25 09:08:18;;;;;;;13.35;6.50;;;;;;;;;;5002507;28;20025;-82
2023/01/25 09:10:44;;;;;;;13.05;5.97;;;;;;;;;;5020652;28;20026;-75
2023/01/25 09:13:09;;;;;;;11.00;5.33;;;;;;;;;;5016867;28;20140;-76
2023/01/25 09:15:34;;;;;;;13.45;6.07;;;;;;;;;;5016578;28;20259;-76
2023/01/25 09:17:59;;;;;;;10.90;5.97;;;;;;;;;;5017037;28;20022;-77
2023/01/25 09:20:25;;;;;;;13.23;6.50;;;;;;;;;;5018423;28;20021;-77
2023/01/25 09:22:50;;;;;;;12.10;6.50;;;;;;;;;;5017144;28;20057;-77
2023/01/25 09:25:15;;;;;;;12.32;6.95;;;;;;;;;;5020302;28;20022;-80
2023/01/25 09:27:43;;;;;;;12.73;6.30;;;;;;;;;;5019632;28;20503;-80
2023/01/25 09:30:09;;;;;;;11.80;6.38;;;;;;;;;;5019430;28;20483;-80
2023/01/25 09:32:35;;;;;;;13.20;6.03;;;;;;;;;;5002867;28;20033;-81
2023/01/25 09:35:00;;;;;;;11.88;5.60;;;;;;;;;;5020382;28;20025;-82
2023/01/25 09:37:26;;;;;;;12.23;5.53;;;;;;;;;;5002499;28;20022;-81
2023/01/25 09:39:51;;;;;;;14.55;5.97;;;;;;;;;;5002817;28;20022;-81
2023/01/25 09:42:43;;;;;;;11.32;5.88;;;;;;;;;;5002442;28;20029;-81
2023/01/25 09:45:26;;;;;;;15.25;6.55;;;;;;;;;;5020192;28;20390;-81
2023/01/25 09:48:27;;;;;;;15.70;6.50;;;;;;;;;;5021262;28;20026;-79
2023/01/25 09:51:17;;;;;;;12.63;6.43;;;;;;;;;;5020308;28;20036;-80
2023/01/25 09:53:51;;;;;;;12.10;6.32;;;;;;;;;;5019560;28;20064;-81
2023/01/25 09:56:21;;;;;;;14.98;6.68;;;;;;;;;;5019824;28;20028;-80
2023/01/25 09:58:50;;;;;;;13.80;6.53;;;;;;;;;;5022404;28;20111;-80
2023/01/25 10:01:36;;;;;;;12.93;6.72;;;;;;;;;;5027483;28;20029;-76
2023/01/25 10:04:16;;;;;;;14.80;6.82;;;;;;;;;;5028256;28;20036;-75
2023/01/25 10:06:45;;;;;;;11.68;6.40;;;;;;;;;;5035716;28;20034;-76
2023/01/25 10:09:18;;;;;;;15.02;6.43;;;;;;;;;;5030718;28;20051;-76
2023/01/25 10:11:44;;;;;;;13.85;6.97;;;;;;;;;;5021609;28;20029;-77
2023/01/25 10:14:14;;;;;;;17.27;7.80;;;;;;;;;;5022966;28;20025;-76
2023/01/25 10:16:45;;;;;;;14.10;6.95;;;;;;;;;;5039882;28;20010;-75
2023/01/25 10:19:21;;;;;;;12.95;6.95;;;;;;;;;;5040201;28;20018;-76
2023/01/25 10:22:10;;;;;;;14.60;7.32;;;;;;;;;;5039272;28;20050;-76
2023/01/25 10:25:10;;;;;;;14.05;7.47;;;;;;;;;;5037498;28;20065;-75
2023/01/25 10:28:26;;;;;;;16.70;6.25;;;;;;;;;;5027662;28;20051;-76
2023/01/25 10:30:58;;;;;;;12.60;6.18;;;;;;;;;;5017432;28;20034;-75
2023/01/25 10:33:26;;;;;;;14.27;6.63;;;;;;;;;;5017768;28;20018;-80
2023/01/25 10:35:57;;;;;;;13.98;6.70;;;;;;;;;;4999603;28;20112;-80
2023/01/25 10:38:28;;;;;;;17.60;7.13;;;;;;;;;;5016674;28;20113;-81
2023/01/25 10:41:04;;;;;;;13.98;7.20;;;;;;;;;;5016696;28;20025;-81
2023/01/25 10:43:29;;;;;;;15.55;7.75;;;;;;;;;;5016946;28;20026;-80
2023/01/25 10:45:54;;;;;;;15.55;7.43;;;;;;;;;;4998954;28;20025;-80
2023/01/25 10:48:28;;;;;;;16.00;7.45;;;;;;;;;;5017663;28;20029;-80
2023/01/25 10:50:56;;;;;;;16.35;7.97;;;;;;;;;;5016600;28;20040;-81
2023/01/25 10:53:27;;;;;;;19.60;8.45;;;;;;;;;;4999871;28;20037;-81
2023/01/25 10:55:56;;;;;;;15.93;7.90;;;;;;;;;;5017207;28;20034;-80
2023/01/25 10:58:49;;;;;;;16.40;8.05;;;;;;;;;;5018378;28;20040;-82
2023/01/25 11:01:35;;;;;;;15.07;7.22;;;;;;;;;;5014854;28;20041;-83
2023/01/25 11:04:01;;;;;;;13.77;6.68;;;;;;;;;;5018749;28;20113;-82
2023/01/25 11:06:37;;;;;;;15.15;6.80;;;;;;;;;;4999810;28;20041;-82
2023/01/25 11:09:23;;;;;;;15.05;7.55;;;;;;;;;;5017235;28;20124;-81
2023/01/25 11:11:56;;;;;;;14.02;7.20;;;;;;;;;;5017681;28;20127;-82
2023/01/25 11:14:25;;;;;;;14.87;7.60;;;;;;;;;;5018339;28;20426;-81
2023/01/25 11:16:53;;;;;;;16.73;7.78;;;;;;;;;;5017688;28;20018;-83
2023/01/25 11:19:39;;;;;;;15.13;7.78;;;;;;;;;;5001395;28;20618;-83
2023/01/25 11:22:20;;;;;;;13.50;6.65;;;;;;;;;;5019200;28;20033;-82
2023/01/25 11:24:46;;;;;;;12.13;6.45;;;;;;;;;;5018467;28;20029;-84
2023/01/25 11:27:24;;;;;;;14.18;6.63;;;;;;;;;;5018775;28;20026;-80
2023/01/25 11:30:14;;;;;;;14.32;6.75;;;;;;;;;;4985333;28;20549;-81
2023/01/25 11:32:40;;;;;;;14.73;6.90;;;;;;;;;;5018587;28;20104;-81
2023/01/25 11:35:15;;;;;;;15.55;7.30;;;;;;;;;;5018912;28;20029;-82
2023/01/25 11:38:16;;;;;;;15.30;7.13;;;;;;;;;;5018078;28;20021;-81
2023/01/25 11:41:17;;;;;;;12.98;6.07;;;;;;;;;;5016918;28;20030;-80
2023/01/25 11:44:06;;;;;;;12.88;6.78;;;;;;;;;;4978977;28;20124;-81
2023/01/25 11:47:13;;;;;;;13.13;7.03;;;;;;;;;;5017401;28;20061;-82
2023/01/25 11:50:01;;;;;;;14.15;7.18;;;;;;;;;;5017713;28;20168;-81
2023/01/25 11:52:58;;;;;;;16.98;7.03;;;;;;;;;;5017614;28;20029;-81
2023/01/25 11:55:54;;;;;;;13.18;6.38;;;;;;;;;;4963853;28;20406;-81
2023/01/25 11:58:34;;;;;;;13.85;6.82;;;;;;;;;;5017502;28;20026;-81
2023/01/25 12:01:23;;;;;;;14.40;6.75;;;;;;;;;;4999030;28;20084;-81
2023/01/25 12:04:24;;;;;;;12.07;6.68;;;;;;;;;;5018035;28;20022;-82
2023/01/25 12:07:03;;;;;;;11.30;6.35;;;;;;;;;;5019311;28;20044;-82
2023/01/25 12:10:03;;;;;;;12.52;6.20;;;;;;;;;;5018665;28;20033;-81
2023/01/25 12:12:46;;;;;;;12.52;6.70;;;;;;;;;;5001210;28;20080;-81
2023/01/25 12:15:17;;;;;;;15.43;6.60;;;;;;;;;;5017967;28;20025;-81
2023/01/25 12:18:10;;;;;;;12.85;6.47;;;;;;;;;;5018839;28;20027;-84
2023/01/25 12:20:44;;;;;;;12.88;6.07;;;;;;;;;;5001236;28;20028;-83
2023/01/25 12:23:33;;;;;;;10.85;5.82;;;;;;;;;;5018472;28;20030;-82
2023/01/25 12:26:26;;;;;;;10.30;5.25;;;;;;;;;;5018911;28;20030;-79
2023/01/25 12:29:02;;;;;;;11.18;5.60;;;;;;;;;;5005730;28;20479;-82
2023/01/25 12:31:36;;;;;;;10.70;5.80;;;;;;;;;;5018562;28;20468;-83
2023/01/25 12:34:23;;;;;;;13.68;7.13;;;;;;;;;;5018819;28;20494;-82
2023/01/25 12:36:49;;;;;;;11.40;6.07;;;;;;;;;;5000853;28;20014;-83
2023/01/25 12:39:52;;;;;;;11.52;6.55;;;;;;;;;;5018164;28;20026;-81
2023/01/25 12:42:31;;;;;;;10.35;5.82;;;;;;;;;;5001365;28;20045;-81
2023/01/25 12:45:08;;;;;;;12.10;6.30;;;;;;;;;;5019073;28;20048;-82
2023/01/25 12:47:49;;;;;;;12.52;6.07;;;;;;;;;;5018353;28;20064;-83
2023/01/25 12:50:20;;;;;;;12.48;6.38;;;;;;;;;;5019156;28;20418;-84
2023/01/25 12:52:56;;;;;;;16.20;6.32;;;;;;;;;;5019027;28;20034;-83
2023/01/25 12:55:21;;;;;;;11.73;6.95;;;;;;;;;;5018115;28;20090;-81
2023/01/25 12:58:11;;;;;;;11.45;6.20;;;;;;;;;;5020000;28;20053;-81
2023/01/25 13:00:48;;;;;;;9.77;5.97;;;;;;;;;;5019245;28;20052;-83
2023/01/25 13:03:26;;;;;;;12.43;6.38;;;;;;;;;;5001983;28;20026;-84
2023/01/25 13:06:18;;;;;;;13.82;6.35;;;;;;;;;;5018189;28;20398;-84
2023/01/25 13:09:14;;;;;;;11.13;5.90;;;;;;;;;;5018300;28;20030;-80
2023/01/25 13:11:41;;;;;;;12.27;5.35;;;;;;;;;;5018144;28;20084;-82
2023/01/25 13:14:19;;;;;;;9.77;5.70;;;;;;;;;;5021437;28;20029;-82
2023/01/25 13:17:09;;;;;;;11.23;5.47;;;;;;;;;;5022535;28;20025;-81
2023/01/25 13:19:34;;;;;;;10.00;5.80;;;;;;;;;;5022209;28;20057;-82
2023/01/25 13:22:00;;;;;;;12.75;5.93;;;;;;;;;;5021814;28;20037;-82
2023/01/25 13:24:30;;;;;;;15.60;7.00;;;;;;;;;;5022640;28;20034;-80
2023/01/25 13:26:55;;;;;;;12.43;5.90;;;;;;;;;;5022036;28;20033;-83
2023/01/25 13:29:41;;;;;;;11.50;5.85;;;;;;;;;;5004530;28;20025;-82
2023/01/25 13:32:33;;;;;;;10.35;5.75;;;;;;;;;;5021266;28;20026;-82
2023/01/25 13:34:59;;;;;;;11.93;6.00;;;;;;;;;;5021021;28;20033;-82
2023/01/25 13:37:27;;;;;;;10.20;5.43;;;;;;;;;;5020567;28;20022;-83
2023/01/25 13:39:59;;;;;;;14.18;6.43;;;;;;;;;;5020779;28;20021;-81
2023/01/25 13:42:26;;;;;;;11.30;6.03;;;;;;;;;;5020890;28;20060;-82
2023/01/25 13:44:54;;;;;;;10.98;5.95;;;;;;;;;;5020620;28;20030;-82
2023/01/25 13:47:31;;;;;;;11.60;6.10;;;;;;;;;;5019949;28;20041;-82
2023/01/25 13:50:17;;;;;;;9.95;5.97;;;;;;;;;;5019287;28;20028;-82
2023/01/25 13:52:59;;;;;;;11.10;5.90;;;;;;;;;;5019335;28;20030;-82
2023/01/25 13:55:25;;;;;;;12.20;5.47;;;;;;;;;;5020507;28;20073;-82
2023/01/25 13:57:50;;;;;;;11.48;6.32;;;;;;;;;;5002368;28;20022;-80
2023/01/25 14:00:17;;;;;;;12.13;5.90;;;;;;;;;;5020375;28;20018;-82
2023/01/25 14:02:45;;;;;;;12.75;6.35;;;;;;;;;;5021424;28;20029;-82
2023/01/25 14:05:23;;;;;;;11.30;6.32;;;;;;;;;;5002890;28;20089;-81
2023/01/25 14:07:51;;;;;;;16.98;6.68;;;;;;;;;;5021128;28;20029;-83
2023/01/25 14:10:23;;;;;;;12.38;6.25;;;;;;;;;;5022098;28;20041;-83
2023/01/25 14:12:49;;;;;;;11.18;5.97;;;;;;;;;;5022672;28;20022;-81
2023/01/25 14:15:31;;;;;;;13.90;7.28;;;;;;;;;;5022629;28;20105;-81
2023/01/25 14:18:18;;;;;;;12.15;6.93;;;;;;;;;;5021875;28;20028;-82
2023/01/25 14:20:48;;;;;;;13.23;6.35;;;;;;;;;;5004414;28;20026;-83
2023/01/25 14:23:20;;;;;;;10.43;6.07;;;;;;;;;;5003940;28;20022;-83
2023/01/25 14:25:52;;;;;;;13.63;7.25;;;;;;;;;;5021383;28;20502;-82
2023/01/25 14:28:19;;;;;;;16.38;7.15;;;;;;;;;;5021658;28;20088;-81
2023/01/25 14:30:50;;;;;;;12.52;6.85;;;;;;;;;;5024313;28;20089;-82
2023/01/25 14:33:18;;;;;;;11.57;6.35;;;;;;;;;;5022163;28;20026;-82
2023/01/25 14:35:47;;;;;;;21.83;7.32;;;;;;;;;;5019616;28;20017;-82
2023/01/25 14:38:32;;;;;;;12.68;6.68;;;;;;;;;;5030940;28;20034;-80
2023/01/25 14:41:12;;;;;;;15.80;7.10;;;;;;;;;;5015932;28;20109;-81
2023/01/25 14:43:41;;;;;;;13.85;7.13;;;;;;;;;;4998687;28;20487;-79
2023/01/25 14:46:25;;;;;;;14.27;6.72;;;;;;;;;;5016399;28;20048;-80
2023/01/25 14:48:59;;;;;;;15.88;7.20;;;;;;;;;;4999166;28;20115;-81
2023/01/25 14:51:27;;;;;;;13.63;7.10;;;;;;;;;;5002314;28;20034;-81
2023/01/25 14:54:02;;;;;;;14.10;7.95;;;;;;;;;;5020996;28;20097;-82
2023/01/25 14:56:35;;;;;;;13.57;7.43;;;;;;;;;;5019813;28;20029;-82